Kirby, Arkansas
Current Conditions -  °F | °C
As of 3:11 AM on Sunday 26 Oct 2014 (Local Time) from KMWT Reporting Station
Haze Haze  
Wind Chill: 59°   Ceiling: 200
Heat Index: 59°   Visibility: 1.7mi
Dew Point: 57°   Wind: 0mph
Humidity: 93%   Direction: NA
Pressure: 30"   Gusts: NA
Location:  34.25°N, 93.64°W
Report Text: KMWT 260811Z AUTO 00000KT 1 3/4SM BR BKN002 15/14 A3000 RMK AO2 T01500139
Loading
Personal Weather Stations






























Interactive Weather Map
Tropical Storm Tracking
New forecast layout! Learn more

10-Day Weather Forecast

Advertisements
Track Severe Weather on mobile